createdAt,value
2019-02-18T00:00:19.205Z,5.96
2019-02-18T00:02:45.307Z,5.93
2019-02-18T00:05:11.431Z,6.10
2019-02-18T00:07:37.304Z,6.01
2019-02-18T00:10:05.198Z,6.01
2019-02-18T00:12:31.163Z,6.05
2019-02-18T00:14:57.120Z,5.94
2019-02-18T00:17:23.120Z,6.00
2019-02-18T00:19:48.985Z,5.85
2019-02-18T00:22:15.261Z,5.85
2019-02-18T00:24:41.289Z,6.01
2019-02-18T00:27:07.144Z,5.94
2019-02-18T00:29:33.022Z,5.88
2019-02-18T00:31:59.038Z,5.88
2019-02-18T00:34:24.920Z,5.84
2019-02-18T00:36:50.932Z,5.88
2019-02-18T00:39:16.921Z,6.10
2019-02-18T00:41:42.800Z,6.12
2019-02-18T00:44:08.794Z,6.01
2019-02-18T00:46:35.645Z,6.05
2019-02-18T00:49:01.631Z,6.03
2019-02-18T00:51:31.242Z,6.09
2019-02-18T00:53:57.305Z,6.03
2019-02-18T00:56:23.153Z,5.84
2019-02-18T00:58:49.076Z,5.77
2019-02-18T01:01:14.960Z,5.82
2019-02-18T01:03:41.040Z,5.88
2019-02-18T01:06:06.983Z,5.66
2019-02-18T01:08:32.966Z,5.65
2019-02-18T01:10:58.874Z,5.56
2019-02-18T01:13:24.878Z,5.53
2019-02-18T01:15:50.861Z,5.50
2019-02-18T01:18:16.959Z,5.54
2019-02-18T01:20:42.935Z,5.48
2019-02-18T01:23:08.803Z,5.36
2019-02-18T01:25:34.898Z,5.43
2019-02-18T01:28:01.020Z,5.41
2019-02-18T01:30:27.013Z,5.32
2019-02-18T01:32:52.931Z,5.34
2019-02-18T01:35:18.962Z,5.47
2019-02-18T01:37:46.265Z,5.32
2019-02-18T01:40:12.992Z,5.32
2019-02-18T01:42:39.074Z,5.37
2019-02-18T01:45:07.875Z,5.30
2019-02-18T01:47:34.025Z,5.30
2019-02-18T01:49:59.997Z,5.39
2019-02-18T01:52:25.977Z,5.36
2019-02-18T01:54:51.932Z,5.33
2019-02-18T01:57:17.782Z,5.23
2019-02-18T01:59:43.789Z,5.17
2019-02-18T02:02:09.727Z,5.12
2019-02-18T02:04:35.704Z,5.15
2019-02-18T02:07:01.563Z,5.19
2019-02-18T02:09:27.711Z,5.19
2019-02-18T02:11:53.696Z,5.17
2019-02-18T02:14:19.584Z,5.22
2019-02-18T02:16:45.598Z,5.04
2019-02-18T02:19:11.538Z,4.97
2019-02-18T02:21:37.491Z,5.06
2019-02-18T02:24:03.555Z,4.85
2019-02-18T02:26:29.569Z,4.83
2019-02-18T02:28:55.544Z,4.78
2019-02-18T02:31:21.468Z,4.78
2019-02-18T02:33:47.371Z,4.75
2019-02-18T02:36:13.266Z,4.65
2019-02-18T02:38:39.288Z,4.64
2019-02-18T02:41:05.255Z,4.72
2019-02-18T02:43:31.242Z,4.56
2019-02-18T02:45:57.192Z,4.72
2019-02-18T02:48:23.086Z,4.64
2019-02-18T02:50:48.965Z,4.61
2019-02-18T02:53:15.025Z,4.58
2019-02-18T02:55:40.894Z,4.56
2019-02-18T02:58:06.825Z,4.55
2019-02-18T03:00:32.793Z,4.64
2019-02-18T03:02:58.667Z,4.63
2019-02-18T03:05:24.591Z,4.56
2019-02-18T03:07:50.558Z,4.50
2019-02-18T03:10:16.544Z,4.61
2019-02-18T03:12:42.592Z,4.70
2019-02-18T03:15:14.630Z,4.78
2019-02-18T03:17:40.725Z,4.66
2019-02-18T03:20:07.822Z,4.65
2019-02-18T03:22:33.798Z,4.75
2019-02-18T03:25:14.745Z,4.71
2019-02-18T03:27:40.649Z,4.78
2019-02-18T03:30:13.408Z,4.89
2019-02-18T03:32:39.493Z,4.82
2019-02-18T03:35:05.367Z,4.68
2019-02-18T03:37:31.274Z,4.71
2019-02-18T03:39:57.136Z,4.64
2019-02-18T03:42:23.298Z,4.53
2019-02-18T03:44:49.269Z,4.49
2019-02-18T03:47:15.244Z,4.49
2019-02-18T03:49:41.170Z,4.44
2019-02-18T03:52:07.154Z,4.46
2019-02-18T03:54:37.239Z,4.43
2019-02-18T03:57:03.235Z,4.47
2019-02-18T03:59:29.223Z,4.44
2019-02-18T04:01:55.398Z,4.36
2019-02-18T04:04:21.524Z,4.34
2019-02-18T04:06:47.408Z,4.20
2019-02-18T04:09:13.331Z,4.30
2019-02-18T04:11:39.325Z,4.18
2019-02-18T04:14:05.212Z,4.25
2019-02-18T04:16:31.269Z,4.25
2019-02-18T04:18:57.359Z,4.25
2019-02-18T04:21:23.434Z,4.28
2019-02-18T04:23:49.442Z,4.33
2019-02-18T04:26:15.327Z,4.25
2019-02-18T04:28:43.803Z,4.27
2019-02-18T04:31:09.839Z,4.29
2019-02-18T04:33:36.019Z,4.21
2019-02-18T04:36:02.030Z,4.29
2019-02-18T04:38:27.920Z,4.31
2019-02-18T04:40:53.817Z,4.12
2019-02-18T04:43:19.868Z,4.03
2019-02-18T04:45:45.895Z,4.05
2019-02-18T04:48:11.972Z,4.12
2019-02-18T04:50:37.930Z,4.12
2019-02-18T04:53:03.907Z,4.06
2019-02-18T04:55:30.082Z,4.02
2019-02-18T04:57:55.999Z,4.16
2019-02-18T05:00:22.050Z,4.22
2019-02-18T05:02:48.010Z,4.14
2019-02-18T05:05:13.981Z,4.12
2019-02-18T05:07:39.843Z,3.92
2019-02-18T05:10:11.308Z,3.86
2019-02-18T05:12:37.393Z,3.98
2019-02-18T05:15:05.305Z,3.94
2019-02-18T05:17:31.198Z,3.99
2019-02-18T05:19:57.082Z,4.12
2019-02-18T05:22:23.127Z,4.05
2019-02-18T05:24:49.234Z,4.12
2019-02-18T05:27:15.240Z,4.04
2019-02-18T05:29:41.135Z,4.03
2019-02-18T05:32:07.099Z,4.01
2019-02-18T05:34:33.065Z,4.08
2019-02-18T05:36:59.051Z,4.01
2019-02-18T05:39:25.130Z,4.04
2019-02-18T05:41:51.076Z,4.06
2019-02-18T05:44:17.080Z,3.97
2019-02-18T05:46:43.244Z,3.91
2019-02-18T05:49:09.177Z,3.86
2019-02-18T05:51:35.241Z,3.86
2019-02-18T05:54:01.153Z,3.88
2019-02-18T05:56:31.238Z,3.88
2019-02-18T05:58:57.226Z,3.93
2019-02-18T06:01:23.288Z,3.99
2019-02-18T06:03:49.276Z,3.96
2019-02-18T06:06:15.196Z,3.96
2019-02-18T06:08:41.164Z,3.91
2019-02-18T06:11:07.125Z,3.92
2019-02-18T06:13:33.020Z,3.89
2019-02-18T06:15:59.000Z,3.87
2019-02-18T06:18:24.837Z,3.89
2019-02-18T06:20:50.797Z,3.93
2019-02-18T06:23:16.719Z,3.91
2019-02-18T06:25:42.706Z,3.88
2019-02-18T06:28:08.607Z,3.91
2019-02-18T06:30:34.537Z,3.88
2019-02-18T06:33:01.233Z,3.83
2019-02-18T06:35:27.342Z,3.78
2019-02-18T06:37:53.318Z,3.77
2019-02-18T06:40:19.172Z,3.86
2019-02-18T06:42:45.187Z,3.93
2019-02-18T06:45:24.997Z,4.00
2019-02-18T06:47:50.965Z,3.97
2019-02-18T06:50:18.734Z,4.05
2019-02-18T06:52:44.646Z,4.17
2019-02-18T06:55:10.695Z,4.39
2019-02-18T06:57:38.539Z,4.46
2019-02-18T07:00:08.921Z,4.46
2019-02-18T07:02:36.832Z,4.41
2019-02-18T07:05:07.893Z,4.43
2019-02-18T07:07:44.512Z,4.38
2019-02-18T07:10:21.405Z,4.41
2019-02-18T07:12:47.661Z,4.38
2019-02-18T07:15:13.554Z,4.47
2019-02-18T07:17:39.557Z,4.42
2019-02-18T07:20:06.635Z,4.49
2019-02-18T07:22:32.534Z,4.63
2019-02-18T07:24:58.509Z,4.65
2019-02-18T07:27:24.729Z,4.83
2019-02-18T07:29:50.613Z,5.02
2019-02-18T07:32:16.499Z,5.04
2019-02-18T07:34:42.499Z,5.17
2019-02-18T07:37:08.800Z,5.30
2019-02-18T07:39:34.828Z,5.35
2019-02-18T07:42:00.839Z,5.35
2019-02-18T07:44:26.738Z,5.50
2019-02-18T07:46:52.618Z,5.64
2019-02-18T07:49:18.507Z,5.66
2019-02-18T07:51:44.462Z,5.73
2019-02-18T07:54:10.474Z,5.83
2019-02-18T07:56:36.325Z,5.89
2019-02-18T07:59:02.360Z,5.95
2019-02-18T08:01:28.388Z,6.01
2019-02-18T08:03:54.361Z,6.11
2019-02-18T08:06:20.595Z,6.23
2019-02-18T08:08:46.588Z,6.26
2019-02-18T08:11:12.548Z,6.46
2019-02-18T08:13:38.504Z,6.73
2019-02-18T08:16:04.570Z,6.88
2019-02-18T08:18:30.566Z,6.77
2019-02-18T08:20:56.566Z,6.82
2019-02-18T08:23:22.461Z,6.79
2019-02-18T08:25:48.318Z,7.04
2019-02-18T08:28:14.254Z,7.20
2019-02-18T08:30:40.211Z,7.26
2019-02-18T08:33:06.115Z,7.45
2019-02-18T08:35:32.003Z,7.69
2019-02-18T08:37:57.884Z,7.67
2019-02-18T08:40:23.811Z,7.82
2019-02-18T08:42:49.824Z,7.87
2019-02-18T08:45:15.795Z,7.95
2019-02-18T08:47:41.934Z,7.96
2019-02-18T08:50:10.017Z,8.16
2019-02-18T08:52:35.983Z,8.30
2019-02-18T08:55:02.039Z,8.33
2019-02-18T08:57:27.932Z,8.53
2019-02-18T08:59:56.997Z,8.65
2019-02-18T09:02:22.872Z,8.69
2019-02-18T09:04:48.917Z,8.82
2019-02-18T09:07:14.800Z,8.90
2019-02-18T09:09:40.665Z,8.99
2019-02-18T09:12:06.632Z,9.39
2019-02-18T09:14:32.758Z,9.45
2019-02-18T09:16:58.872Z,9.50
2019-02-18T09:19:24.750Z,9.69
2019-02-18T09:21:52.541Z,9.73
2019-02-18T09:24:22.313Z,9.80
2019-02-18T09:26:48.261Z,10.00
2019-02-18T09:29:14.241Z,10.10
2019-02-18T09:31:42.622Z,10.07
2019-02-18T09:34:07.939Z,10.12
2019-02-18T09:36:34.002Z,10.42
2019-02-18T09:39:00.000Z,10.42
2019-02-18T09:41:26.084Z,10.58
2019-02-18T09:43:52.028Z,10.80
2019-02-18T09:46:22.152Z,10.77
2019-02-18T09:48:48.416Z,10.88
2019-02-18T09:51:14.399Z,11.07
2019-02-18T09:53:40.356Z,11.15
2019-02-18T09:56:06.403Z,11.17
2019-02-18T09:58:32.419Z,11.19
2019-02-18T10:00:58.324Z,11.40
2019-02-18T10:03:31.477Z,11.42
2019-02-18T10:05:52.445Z,11.50
2019-02-18T10:08:18.414Z,11.33
2019-02-18T10:10:55.077Z,11.54
2019-02-18T10:13:12.458Z,11.61
2019-02-18T10:15:38.429Z,11.67
2019-02-18T10:18:04.459Z,11.76
2019-02-18T10:20:30.363Z,11.75
2019-02-18T10:22:56.346Z,11.86
2019-02-18T10:25:22.361Z,11.85
2019-02-18T10:27:48.426Z,11.92
2019-02-18T10:30:14.345Z,12.01
2019-02-18T10:32:40.387Z,12.09
2019-02-18T10:35:09.310Z,12.12
2019-02-18T10:37:35.184Z,12.20
2019-02-18T10:40:01.442Z,12.40
2019-02-18T10:42:27.498Z,12.23
2019-02-18T10:44:53.502Z,12.39
2019-02-18T10:47:19.401Z,12.31
2019-02-18T10:49:45.482Z,12.55
2019-02-18T10:52:11.503Z,12.77
2019-02-18T10:54:37.777Z,12.81
2019-02-18T10:57:03.761Z,12.82
2019-02-18T10:59:29.705Z,12.95
2019-02-18T11:01:55.831Z,12.83
2019-02-18T11:04:21.882Z,12.83
2019-02-18T11:06:47.954Z,12.96
2019-02-18T11:09:14.020Z,12.83
2019-02-18T11:11:40.002Z,13.07
2019-02-18T11:14:06.194Z,13.10
2019-02-18T11:16:32.590Z,13.15
2019-02-18T11:18:58.634Z,13.33
2019-02-18T11:21:24.595Z,13.01
2019-02-18T11:23:50.590Z,12.96
2019-02-18T11:26:16.515Z,13.10
2019-02-18T11:28:42.536Z,13.25
2019-02-18T11:31:08.629Z,13.24
2019-02-18T11:33:34.520Z,13.20
2019-02-18T11:36:00.707Z,13.19
2019-02-18T11:38:26.584Z,13.40
2019-02-18T11:40:52.494Z,13.53
2019-02-18T11:43:18.382Z,12.82
2019-02-18T11:45:44.367Z,13.46
2019-02-18T11:48:10.465Z,13.32
2019-02-18T11:50:36.515Z,13.38
2019-02-18T11:53:02.614Z,13.41
2019-02-18T11:55:28.526Z,13.45
2019-02-18T11:57:54.416Z,13.57
2019-02-18T12:00:20.445Z,13.53
2019-02-18T12:02:46.399Z,13.57
2019-02-18T12:05:12.540Z,13.62
2019-02-18T12:07:38.686Z,13.68
2019-02-18T12:10:08.075Z,13.72
2019-02-18T12:12:34.180Z,13.90
2019-02-18T12:15:00.587Z,14.04
2019-02-18T12:17:26.555Z,14.34
2019-02-18T12:19:52.421Z,19.81
2019-02-18T12:22:18.525Z,22.57
2019-02-18T12:24:44.513Z,20.84
2019-02-18T12:27:10.540Z,20.30
2019-02-18T12:29:36.552Z,19.17
2019-02-18T12:32:02.539Z,16.37
2019-02-18T12:34:28.595Z,15.61
2019-02-18T12:36:54.590Z,16.04
2019-02-18T12:39:22.671Z,16.27
2019-02-18T12:41:49.163Z,18.88
2019-02-18T12:44:15.377Z,18.99
2019-02-18T12:46:41.370Z,21.42
2019-02-18T12:49:07.368Z,21.42
2019-02-18T12:51:33.393Z,24.50
2019-02-18T12:54:05.070Z,20.81
2019-02-18T12:56:27.721Z,19.25
2019-02-18T12:58:54.833Z,24.75
2019-02-18T13:01:22.041Z,25.86
2019-02-18T13:03:48.002Z,27.59
2019-02-18T13:06:14.211Z,27.04
2019-02-18T13:08:40.137Z,25.90
2019-02-18T13:11:06.093Z,26.70
2019-02-18T13:13:32.100Z,31.54
2019-02-18T13:15:58.217Z,31.93
2019-02-18T13:18:24.124Z,29.96
2019-02-18T13:20:50.396Z,28.20
2019-02-18T13:23:16.562Z,32.11
2019-02-18T13:25:47.462Z,29.23
2019-02-18T13:28:10.444Z,29.42
2019-02-18T13:30:36.445Z,28.98
2019-02-18T13:33:02.470Z,28.94
2019-02-18T13:35:28.535Z,31.08
2019-02-18T13:37:54.613Z,28.46
2019-02-18T13:40:20.664Z,30.77
2019-02-18T13:42:46.650Z,28.89
2019-02-18T13:45:12.825Z,29.38
2019-02-18T13:47:38.967Z,31.97
2019-02-18T13:50:07.988Z,29.82
2019-02-18T13:52:34.003Z,26.95
2019-02-18T13:55:01.605Z,30.22
2019-02-18T13:57:28.118Z,31.52
2019-02-18T13:59:54.546Z,34.87
2019-02-18T14:02:20.545Z,28.46
2019-02-18T14:04:50.244Z,28.40
2019-02-18T14:07:16.382Z,31.23
2019-02-18T14:09:42.533Z,31.27
2019-02-18T14:12:15.966Z,29.92
2019-02-18T14:14:36.644Z,32.06
2019-02-18T14:17:02.704Z,29.61
2019-02-18T14:19:28.895Z,29.83
2019-02-18T14:21:55.053Z,29.10
2019-02-18T14:24:21.054Z,29.07
2019-02-18T14:26:47.170Z,30.32
2019-02-18T14:29:13.212Z,31.49
2019-02-18T14:31:39.071Z,29.62
2019-02-18T14:34:04.952Z,30.50
2019-02-18T14:36:30.928Z,26.76
2019-02-18T14:38:57.305Z,28.64
2019-02-18T14:41:23.531Z,29.62
2019-02-18T14:43:49.531Z,29.42
2019-02-18T14:46:15.479Z,30.54
2019-02-18T14:48:41.598Z,29.78
2019-02-18T14:51:07.689Z,26.74
2019-02-18T14:53:33.693Z,25.05
2019-02-18T14:55:59.613Z,25.58
2019-02-18T14:58:25.680Z,25.99
2019-02-18T15:00:51.763Z,27.13
2019-02-18T15:03:17.708Z,25.24
2019-02-18T15:05:43.967Z,26.31
2019-02-18T15:08:09.854Z,28.87
2019-02-18T15:10:35.870Z,28.59
2019-02-18T15:13:01.778Z,28.20
2019-02-18T15:15:27.737Z,26.72
2019-02-18T15:17:54.007Z,29.52
2019-02-18T15:20:20.344Z,28.24
2019-02-18T15:22:46.280Z,29.69
2019-02-18T15:25:12.484Z,27.31
2019-02-18T15:27:38.434Z,26.20
2019-02-18T15:30:08.066Z,26.23
2019-02-18T15:32:34.037Z,25.11
2019-02-18T15:35:00.024Z,23.56
2019-02-18T15:37:26.060Z,20.33
2019-02-18T15:39:52.324Z,18.07
2019-02-18T15:42:18.210Z,16.24
2019-02-18T15:44:44.221Z,16.38
2019-02-18T15:47:10.190Z,16.38
2019-02-18T15:49:36.314Z,15.87
2019-02-18T15:52:02.310Z,15.67
2019-02-18T15:54:28.515Z,15.28
2019-02-18T15:56:54.648Z,15.22
2019-02-18T15:59:20.910Z,15.27
2019-02-18T16:01:46.893Z,14.97
2019-02-18T16:04:13.085Z,14.88
2019-02-18T16:06:42.210Z,14.76
2019-02-18T16:09:08.208Z,14.64
2019-02-18T16:11:34.297Z,14.59
2019-02-18T16:14:00.163Z,14.47
2019-02-18T16:16:26.156Z,14.39
2019-02-18T16:18:52.725Z,14.27
2019-02-18T16:21:18.728Z,14.19
2019-02-18T16:23:44.740Z,14.04
2019-02-18T16:26:10.586Z,13.94
2019-02-18T16:28:36.521Z,13.89
2019-02-18T16:31:02.702Z,13.75
2019-02-18T16:33:28.728Z,13.64
2019-02-18T16:35:54.721Z,13.49
2019-02-18T16:38:20.844Z,13.36
2019-02-18T16:40:46.966Z,13.12
2019-02-18T16:43:13.029Z,12.99
2019-02-18T16:45:39.083Z,12.86
2019-02-18T16:48:05.342Z,12.69
2019-02-18T16:50:31.412Z,12.55
2019-02-18T16:52:57.379Z,12.34
2019-02-18T16:55:23.231Z,12.16
2019-02-18T16:57:49.539Z,11.99
2019-02-18T17:00:21.164Z,12.10
2019-02-18T17:02:47.166Z,11.93
2019-02-18T17:05:13.204Z,11.76
2019-02-18T17:07:39.105Z,11.52
2019-02-18T17:10:06.659Z,11.44
2019-02-18T17:12:32.606Z,11.34
2019-02-18T17:14:58.477Z,11.36
2019-02-18T17:17:24.672Z,11.27
2019-02-18T17:19:50.587Z,11.14
2019-02-18T17:22:16.587Z,11.04
2019-02-18T17:24:42.558Z,10.93
2019-02-18T17:27:08.478Z,11.05
2019-02-18T17:29:34.402Z,11.10
2019-02-18T17:32:00.447Z,10.95
2019-02-18T17:34:26.314Z,10.60
2019-02-18T17:36:52.587Z,10.45
2019-02-18T17:39:18.715Z,10.47
2019-02-18T17:41:44.812Z,10.37
2019-02-18T17:44:10.883Z,10.26
2019-02-18T17:46:36.898Z,10.48
2019-02-18T17:49:02.989Z,10.40
2019-02-18T17:51:28.996Z,10.32
2019-02-18T17:53:54.843Z,10.22
2019-02-18T17:56:23.142Z,10.04
2019-02-18T17:58:49.585Z,10.08
2019-02-18T18:01:15.731Z,9.95
2019-02-18T18:03:41.598Z,9.86
2019-02-18T18:06:07.751Z,9.79
2019-02-18T18:08:33.837Z,9.77
2019-02-18T18:11:00.034Z,9.61
2019-02-18T18:13:26.050Z,9.59
2019-02-18T18:15:52.020Z,9.52
2019-02-18T18:18:23.938Z,9.49
2019-02-18T18:20:51.773Z,9.47
2019-02-18T18:23:18.410Z,9.42
2019-02-18T18:25:44.413Z,9.40
2019-02-18T18:28:10.435Z,9.28
2019-02-18T18:30:36.431Z,9.26
2019-02-18T18:33:02.944Z,9.28
2019-02-18T18:35:29.149Z,9.20
2019-02-18T18:37:55.261Z,9.09
2019-02-18T18:40:21.289Z,9.09
2019-02-18T18:42:47.256Z,9.03
2019-02-18T18:45:15.733Z,9.13
2019-02-18T18:47:42.108Z,9.13
2019-02-18T18:50:10.916Z,9.09
2019-02-18T18:52:36.943Z,9.02
2019-02-18T18:55:04.519Z,8.99
2019-02-18T18:57:30.480Z,8.99
2019-02-18T18:59:56.441Z,8.98
2019-02-18T19:02:22.484Z,8.91
2019-02-18T19:04:48.362Z,8.97
2019-02-18T19:07:14.344Z,9.03
2019-02-18T19:09:40.374Z,8.99
2019-02-18T19:12:10.387Z,9.00
2019-02-18T19:14:36.379Z,8.95
2019-02-18T19:17:02.512Z,8.97
2019-02-18T19:19:28.480Z,8.96
2019-02-18T19:21:54.492Z,8.90
2019-02-18T19:24:22.846Z,8.73
2019-02-18T19:26:49.072Z,8.59
2019-02-18T19:29:15.883Z,8.66
2019-02-18T19:31:41.955Z,8.69
2019-02-18T19:34:07.967Z,8.59
2019-02-18T19:36:34.007Z,8.51
2019-02-18T19:38:59.977Z,8.42
2019-02-18T19:41:25.933Z,8.46
2019-02-18T19:43:51.817Z,8.46
2019-02-18T19:46:17.888Z,8.42
2019-02-18T19:48:43.892Z,8.44
2019-02-18T19:51:10.093Z,8.37
2019-02-18T19:53:36.157Z,8.32
2019-02-18T19:56:02.249Z,8.27
2019-02-18T19:58:28.126Z,8.29
2019-02-18T20:00:54.223Z,8.22
2019-02-18T20:03:20.427Z,8.16
2019-02-18T20:05:46.649Z,8.13
2019-02-18T20:08:13.029Z,8.20
2019-02-18T20:10:39.124Z,8.22
2019-02-18T20:13:09.346Z,8.08
2019-02-18T20:15:35.427Z,8.17
2019-02-18T20:18:01.360Z,7.95
2019-02-18T20:20:27.444Z,7.90
2019-02-18T20:22:53.900Z,7.89
2019-02-18T20:25:19.936Z,7.85
2019-02-18T20:27:46.049Z,7.86
2019-02-18T20:30:16.376Z,7.75
2019-02-18T20:32:42.400Z,7.72
2019-02-18T20:35:09.446Z,7.72
2019-02-18T20:37:35.446Z,7.73
2019-02-18T20:40:01.475Z,7.78
2019-02-18T20:42:27.823Z,7.70
2019-02-18T20:44:54.623Z,7.78
2019-02-18T20:47:21.567Z,7.69
2019-02-18T20:49:48.936Z,7.74
2019-02-18T20:52:16.406Z,7.82
2019-02-18T20:54:44.042Z,7.71
2019-02-18T20:57:11.358Z,7.64
2019-02-18T20:59:38.869Z,7.70
2019-02-18T21:02:06.889Z,7.67
2019-02-18T21:04:34.614Z,7.64
2019-02-18T21:07:04.741Z,7.56
2019-02-18T21:09:33.191Z,7.53
2019-02-18T21:12:01.075Z,7.48
2019-02-18T21:14:30.426Z,7.47
2019-02-18T21:16:58.317Z,7.46
2019-02-18T21:19:26.842Z,7.40
2019-02-18T21:21:54.653Z,7.29
2019-02-18T21:24:22.959Z,7.29
2019-02-18T21:26:50.046Z,7.28
2019-02-18T21:29:17.383Z,7.15
2019-02-18T21:31:43.989Z,7.19
2019-02-18T21:34:10.604Z,7.17
2019-02-18T21:36:36.869Z,6.96
2019-02-18T21:39:07.222Z,6.92
2019-02-18T21:41:41.056Z,6.88
2019-02-18T21:44:07.174Z,7.00
2019-02-18T21:46:33.316Z,6.84
2019-02-18T21:48:59.289Z,6.93
2019-02-18T21:51:25.951Z,6.90
2019-02-18T21:53:51.885Z,6.75
2019-02-18T21:56:17.966Z,6.85
2019-02-18T21:58:44.129Z,6.84
2019-02-18T22:01:10.131Z,6.88
2019-02-18T22:03:36.199Z,6.90
2019-02-18T22:06:04.725Z,6.88
2019-02-18T22:08:30.868Z,6.84
2019-02-18T22:10:57.377Z,6.74
2019-02-18T22:13:23.254Z,6.77
2019-02-18T22:15:49.363Z,6.60
2019-02-18T22:18:15.241Z,6.70
2019-02-18T22:20:41.352Z,6.76
2019-02-18T22:23:07.506Z,6.69
2019-02-18T22:25:33.357Z,6.57
2019-02-18T22:27:59.403Z,6.47
2019-02-18T22:30:25.530Z,6.49
2019-02-18T22:32:51.832Z,6.49
2019-02-18T22:35:17.984Z,6.52
2019-02-18T22:37:44.124Z,6.57
2019-02-18T22:40:11.461Z,6.51
2019-02-18T22:42:37.673Z,6.42
2019-02-18T22:45:04.763Z,6.47
2019-02-18T22:47:30.813Z,6.41
2019-02-18T22:49:57.060Z,6.40
2019-02-18T22:52:22.948Z,6.31
2019-02-18T22:54:49.517Z,6.36
2019-02-18T22:57:15.604Z,6.31
2019-02-18T22:59:41.688Z,6.32
2019-02-18T23:02:08.636Z,6.19
2019-02-18T23:04:34.531Z,5.98
2019-02-18T23:07:00.588Z,5.94
2019-02-18T23:09:26.447Z,5.86
2019-02-18T23:11:52.351Z,5.88
2019-02-18T23:14:18.350Z,5.94
2019-02-18T23:16:44.884Z,5.88
2019-02-18T23:19:10.863Z,5.94
2019-02-18T23:21:36.735Z,5.99
2019-02-18T23:24:02.655Z,5.76
2019-02-18T23:26:28.686Z,5.72
2019-02-18T23:28:54.577Z,5.74
2019-02-18T23:31:20.443Z,5.74
2019-02-18T23:33:46.332Z,5.66
2019-02-18T23:36:12.426Z,5.71
2019-02-18T23:38:38.441Z,5.90
2019-02-18T23:41:04.414Z,5.92
2019-02-18T23:43:30.476Z,5.85
2019-02-18T23:45:56.593Z,5.70
2019-02-18T23:48:22.470Z,5.74
2019-02-18T23:50:48.463Z,5.73
2019-02-18T23:53:16.491Z,5.69
2019-02-18T23:55:42.797Z,5.68
2019-02-18T23:58:08.805Z,5.52
